sensor_id;sensor_type;location;lat;lon;timestamp;temperature;humidity
25208;DHT22;13153;52.316;21.166;2022-09-09T00:10:25;12.60;99.90
25208;DHT22;13153;52.316;21.166;2022-09-09T00:12:57;12.50;99.90
25208;DHT22;13153;52.316;21.166;2022-09-09T00:21:32;12.50;99.90
25208;DHT22;13153;52.316;21.166;2022-09-09T00:24:04;12.60;99.90
25208;DHT22;13153;52.316;21.166;2022-09-09T00:26:48;12.50;99.90
25208;DHT22;13153;52.316;21.166;2022-09-09T00:29:51;12.40;99.90
25208;DHT22;13153;52.316;21.166;2022-09-09T00:32:21;12.50;99.90
25208;DHT22;13153;52.316;21.166;2022-09-09T00:35:03;12.50;99.90
25208;DHT22;13153;52.316;21.166;2022-09-09T00:37:41;12.50;99.90
25208;DHT22;13153;52.316;21.166;2022-09-09T00:47:13;12.50;99.90
25208;DHT22;13153;52.316;21.166;2022-09-09T00:50:01;12.50;99.90
25208;DHT22;13153;52.316;21.166;2022-09-09T00:52:47;12.50;99.90
25208;DHT22;13153;52.316;21.166;2022-09-09T00:56:25;12.50;99.90
25208;DHT22;13153;52.316;21.166;2022-09-09T00:58:37;12.50;99.90
25208;DHT22;13153;52.316;21.166;2022-09-09T01:01:06;12.50;99.90
25208;DHT22;13153;52.316;21.166;2022-09-09T01:03:58;12.40;99.90
25208;DHT22;13153;52.316;21.166;2022-09-09T01:15:24;12.40;99.90
25208;DHT22;13153;52.316;21.166;2022-09-09T01:17:58;12.30;99.90
25208;DHT22;13153;52.316;21.166;2022-09-09T01:29:02;12.40;99.90
25208;DHT22;13153;52.316;21.166;2022-09-09T01:31:39;12.40;99.90
25208;DHT22;13153;52.316;21.166;2022-09-09T01:34:14;12.40;99.90
25208;DHT22;13153;52.316;21.166;2022-09-09T01:39:35;12.40;99.90
25208;DHT22;13153;52.316;21.166;2022-09-09T01:42:03;12.40;99.90
25208;DHT22;13153;52.316;21.166;2022-09-09T01:44:32;12.40;99.90
25208;DHT22;13153;52.316;21.166;2022-09-09T01:46:59;12.40;99.90
25208;DHT22;13153;52.316;21.166;2022-09-09T01:49:25;12.40;99.90
25208;DHT22;13153;52.316;21.166;2022-09-09T01:51:54;12.50;99.90
25208;DHT22;13153;52.316;21.166;2022-09-09T01:54:23;12.50;99.90
25208;DHT22;13153;52.316;21.166;2022-09-09T01:57:22;12.40;99.90
25208;DHT22;13153;52.316;21.166;2022-09-09T02:00:04;12.50;99.90
25208;DHT22;13153;52.316;21.166;2022-09-09T02:02:48;12.40;99.90
25208;DHT22;13153;52.316;21.166;2022-09-09T02:05:41;12.50;99.90
25208;DHT22;13153;52.316;21.166;2022-09-09T02:08:21;12.40;99.90
25208;DHT22;13153;52.316;21.166;2022-09-09T02:13:29;12.40;99.90
25208;DHT22;13153;52.316;21.166;2022-09-09T02:16:18;12.40;99.90
25208;DHT22;13153;52.316;21.166;2022-09-09T02:19:02;12.40;99.90
25208;DHT22;13153;52.316;21.166;2022-09-09T02:21:34;12.40;99.90
25208;DHT22;13153;52.316;21.166;2022-09-09T02:24:05;12.40;99.90
25208;DHT22;13153;52.316;21.166;2022-09-09T02:26:37;12.40;99.90
25208;DHT22;13153;52.316;21.166;2022-09-09T02:29:29;12.50;99.90
25208;DHT22;13153;52.316;21.166;2022-09-09T02:32:01;12.50;99.90
25208;DHT22;13153;52.316;21.166;2022-09-09T02:34:35;12.50;99.90
25208;DHT22;13153;52.316;21.166;2022-09-09T02:37:06;12.50;99.90
25208;DHT22;13153;52.316;21.166;2022-09-09T02:39:34;12.50;99.90
25208;DHT22;13153;52.316;21.166;2022-09-09T02:42:00;12.50;99.90
25208;DHT22;13153;52.316;21.166;2022-09-09T02:44:26;12.50;99.90
25208;DHT22;13153;52.316;21.166;2022-09-09T02:47:20;12.60;99.90
25208;DHT22;13153;52.316;21.166;2022-09-09T02:56:00;12.50;99.90
25208;DHT22;13153;52.316;21.166;2022-09-09T02:58:32;12.50;99.90
25208;DHT22;13153;52.316;21.166;2022-09-09T03:00:59;12.60;99.90
25208;DHT22;13153;52.316;21.166;2022-09-09T03:03:26;12.60;99.90
25208;DHT22;13153;52.316;21.166;2022-09-09T03:05:52;12.60;99.90
25208;DHT22;13153;52.316;21.166;2022-09-09T03:08:18;12.50;99.90
25208;DHT22;13153;52.316;21.166;2022-09-09T03:10:43;12.50;99.90
25208;DHT22;13153;52.316;21.166;2022-09-09T03:13:10;12.50;99.90
25208;DHT22;13153;52.316;21.166;2022-09-09T03:15:38;12.60;99.90
25208;DHT22;13153;52.316;21.166;2022-09-09T03:18:03;12.50;99.90
25208;DHT22;13153;52.316;21.166;2022-09-09T03:20:30;12.60;99.90
25208;DHT22;13153;52.316;21.166;2022-09-09T03:22:56;12.60;99.90
25208;DHT22;13153;52.316;21.166;2022-09-09T03:25:24;12.60;99.90
25208;DHT22;13153;52.316;21.166;2022-09-09T03:27:51;12.60;99.90
25208;DHT22;13153;52.316;21.166;2022-09-09T03:30:24;12.70;99.90
25208;DHT22;13153;52.316;21.166;2022-09-09T03:32:51;12.70;99.90
25208;DHT22;13153;52.316;21.166;2022-09-09T03:35:18;12.60;99.90
25208;DHT22;13153;52.316;21.166;2022-09-09T03:37:45;12.60;99.90
25208;DHT22;13153;52.316;21.166;2022-09-09T03:40:11;12.70;99.90
25208;DHT22;13153;52.316;21.166;2022-09-09T03:42:38;12.70;99.90
25208;DHT22;13153;52.316;21.166;2022-09-09T03:45:06;12.60;99.90
25208;DHT22;13153;52.316;21.166;2022-09-09T03:47:34;12.70;99.90
25208;DHT22;13153;52.316;21.166;2022-09-09T03:50:00;12.60;99.90
25208;DHT22;13153;52.316;21.166;2022-09-09T03:52:26;12.60;99.90
25208;DHT22;13153;52.316;21.166;2022-09-09T03:54:53;12.60;99.90
25208;DHT22;13153;52.316;21.166;2022-09-09T03:57:19;12.50;99.90
25208;DHT22;13153;52.316;21.166;2022-09-09T03:59:45;12.50;99.90
25208;DHT22;13153;52.316;21.166;2022-09-09T04:02:11;12.50;99.90
25208;DHT22;13153;52.316;21.166;2022-09-09T04:04:37;12.50;99.90
25208;DHT22;13153;52.316;21.166;2022-09-09T04:07:03;12.50;99.90
25208;DHT22;13153;52.316;21.166;2022-09-09T04:09:32;12.50;99.90
25208;DHT22;13153;52.316;21.166;2022-09-09T04:11:58;12.50;99.90
25208;DHT22;13153;52.316;21.166;2022-09-09T04:14:23;12.50;99.90
25208;DHT22;13153;52.316;21.166;2022-09-09T04:16:54;12.60;99.90
25208;DHT22;13153;52.316;21.166;2022-09-09T04:19:21;12.60;99.90
25208;DHT22;13153;52.316;21.166;2022-09-09T04:21:47;12.60;99.90
25208;DHT22;13153;52.316;21.166;2022-09-09T04:24:16;12.70;99.90
25208;DHT22;13153;52.316;21.166;2022-09-09T04:26:43;12.70;99.90
25208;DHT22;13153;52.316;21.166;2022-09-09T04:29:08;12.70;99.90
25208;DHT22;13153;52.316;21.166;2022-09-09T04:31:35;12.70;99.90
25208;DHT22;13153;52.316;21.166;2022-09-09T04:34:00;12.70;99.90
25208;DHT22;13153;52.316;21.166;2022-09-09T04:36:31;12.80;99.90
25208;DHT22;13153;52.316;21.166;2022-09-09T04:38:57;12.80;99.90
25208;DHT22;13153;52.316;21.166;2022-09-09T04:41:23;12.80;99.90
25208;DHT22;13153;52.316;21.166;2022-09-09T04:43:49;12.80;99.90
25208;DHT22;13153;52.316;21.166;2022-09-09T04:46:15;12.80;99.90
25208;DHT22;13153;52.316;21.166;2022-09-09T04:48:43;12.80;99.90
25208;DHT22;13153;52.316;21.166;2022-09-09T04:51:12;12.80;99.90
25208;DHT22;13153;52.316;21.166;2022-09-09T04:53:39;12.80;99.90
25208;DHT22;13153;52.316;21.166;2022-09-09T04:56:16;12.90;99.90
25208;DHT22;13153;52.316;21.166;2022-09-09T04:58:43;12.90;99.90
25208;DHT22;13153;52.316;21.166;2022-09-09T05:01:20;12.90;99.90
25208;DHT22;13153;52.316;21.166;2022-09-09T05:03:47;12.80;99.90
25208;DHT22;13153;52.316;21.166;2022-09-09T05:06:15;12.80;99.90
25208;DHT22;13153;52.316;21.166;2022-09-09T05:08:45;12.80;99.90
25208;DHT22;13153;52.316;21.166;2022-09-09T05:11:28;12.80;99.90
25208;DHT22;13153;52.316;21.166;2022-09-09T05:13:57;12.80;99.90
25208;DHT22;13153;52.316;21.166;2022-09-09T05:16:23;12.90;99.90
25208;DHT22;13153;52.316;21.166;2022-09-09T05:18:49;13.00;99.90
25208;DHT22;13153;52.316;21.166;2022-09-09T05:21:17;12.90;99.90
25208;DHT22;13153;52.316;21.166;2022-09-09T05:23:45;13.00;99.90
25208;DHT22;13153;52.316;21.166;2022-09-09T05:26:13;12.90;99.90
25208;DHT22;13153;52.316;21.166;2022-09-09T05:28:40;13.00;99.90
25208;DHT22;13153;52.316;21.166;2022-09-09T05:31:09;13.00;99.90
25208;DHT22;13153;52.316;21.166;2022-09-09T05:33:39;13.00;99.90
25208;DHT22;13153;52.316;21.166;2022-09-09T05:36:16;13.00;99.90
25208;DHT22;13153;52.316;21.166;2022-09-09T05:38:43;13.00;99.90
25208;DHT22;13153;52.316;21.166;2022-09-09T05:41:11;13.00;99.90
25208;DHT22;13153;52.316;21.166;2022-09-09T05:43:38;13.00;99.90
25208;DHT22;13153;52.316;21.166;2022-09-09T05:46:06;13.00;99.90
25208;DHT22;13153;52.316;21.166;2022-09-09T05:48:58;12.90;99.90
25208;DHT22;13153;52.316;21.166;2022-09-09T05:51:26;12.90;99.90
25208;DHT22;13153;52.316;21.166;2022-09-09T05:53:55;12.80;99.90
25208;DHT22;13153;52.316;21.166;2022-09-09T05:56:25;12.80;99.90
25208;DHT22;13153;52.316;21.166;2022-09-09T05:58:53;12.80;99.90
25208;DHT22;13153;52.316;21.166;2022-09-09T06:01:31;12.70;99.90
25208;DHT22;13153;52.316;21.166;2022-09-09T06:03:58;12.80;99.90
25208;DHT22;13153;52.316;21.166;2022-09-09T06:06:26;12.80;99.90
25208;DHT22;13153;52.316;21.166;2022-09-09T06:08:57;12.90;99.90
25208;DHT22;13153;52.316;21.166;2022-09-09T06:11:28;12.90;99.90
25208;DHT22;13153;52.316;21.166;2022-09-09T06:13:56;12.90;99.90
25208;DHT22;13153;52.316;21.166;2022-09-09T06:16:24;12.90;99.90
25208;DHT22;13153;52.316;21.166;2022-09-09T06:18:53;12.90;99.90
25208;DHT22;13153;52.316;21.166;2022-09-09T06:21:21;12.90;99.90
25208;DHT22;13153;52.316;21.166;2022-09-09T06:23:52;12.90;99.90
25208;DHT22;13153;52.316;21.166;2022-09-09T06:26:22;12.90;99.90
25208;DHT22;13153;52.316;21.166;2022-09-09T06:28:52;12.90;99.90
25208;DHT22;13153;52.316;21.166;2022-09-09T06:31:25;12.90;99.90
25208;DHT22;13153;52.316;21.166;2022-09-09T06:33:56;12.90;99.90
25208;DHT22;13153;52.316;21.166;2022-09-09T06:36:28;12.90;99.90
25208;DHT22;13153;52.316;21.166;2022-09-09T06:38:56;12.90;99.90
25208;DHT22;13153;52.316;21.166;2022-09-09T06:41:25;13.00;99.90
25208;DHT22;13153;52.316;21.166;2022-09-09T06:43:52;13.00;99.90
25208;DHT22;13153;52.316;21.166;2022-09-09T06:46:20;12.90;99.90
25208;DHT22;13153;52.316;21.166;2022-09-09T06:48:47;12.90;99.90
25208;DHT22;13153;52.316;21.166;2022-09-09T06:51:18;13.00;99.90
25208;DHT22;13153;52.316;21.166;2022-09-09T06:53:50;12.90;99.90
25208;DHT22;13153;52.316;21.166;2022-09-09T06:56:20;12.90;99.90
25208;DHT22;13153;52.316;21.166;2022-09-09T06:58:53;12.90;99.90
25208;DHT22;13153;52.316;21.166;2022-09-09T07:01:22;12.90;99.90
25208;DHT22;13153;52.316;21.166;2022-09-09T07:03:51;12.90;99.90
25208;DHT22;13153;52.316;21.166;2022-09-09T07:06:42;12.90;99.90
25208;DHT22;13153;52.316;21.166;2022-09-09T07:09:13;13.00;99.90
25208;DHT22;13153;52.316;21.166;2022-09-09T07:11:48;13.00;99.90
25208;DHT22;13153;52.316;21.166;2022-09-09T07:14:16;13.00;99.90
25208;DHT22;13153;52.316;21.166;2022-09-09T07:16:43;12.90;99.90
25208;DHT22;13153;52.316;21.166;2022-09-09T07:19:10;12.90;99.90
25208;DHT22;13153;52.316;21.166;2022-09-09T07:21:38;13.00;99.90
25208;DHT22;13153;52.316;21.166;2022-09-09T07:24:05;13.00;99.90
25208;DHT22;13153;52.316;21.166;2022-09-09T07:26:37;13.00;99.90
25208;DHT22;13153;52.316;21.166;2022-09-09T07:29:04;13.10;99.90
25208;DHT22;13153;52.316;21.166;2022-09-09T07:31:32;13.10;99.90
25208;DHT22;13153;52.316;21.166;2022-09-09T07:34:00;13.10;99.90
25208;DHT22;13153;52.316;21.166;2022-09-09T07:36:38;13.10;99.90
25208;DHT22;13153;52.316;21.166;2022-09-09T07:39:09;13.10;99.90
25208;DHT22;13153;52.316;21.166;2022-09-09T07:41:46;13.10;99.90
25208;DHT22;13153;52.316;21.166;2022-09-09T07:44:18;13.10;99.90
25208;DHT22;13153;52.316;21.166;2022-09-09T07:46:50;13.20;99.90
25208;DHT22;13153;52.316;21.166;2022-09-09T07:49:15;13.10;99.90
25208;DHT22;13153;52.316;21.166;2022-09-09T07:51:45;13.20;99.90
25208;DHT22;13153;52.316;21.166;2022-09-09T07:54:14;13.20;99.90
25208;DHT22;13153;52.316;21.166;2022-09-09T07:56:42;13.20;99.90
25208;DHT22;13153;52.316;21.166;2022-09-09T07:59:09;13.20;99.90
25208;DHT22;13153;52.316;21.166;2022-09-09T08:01:41;13.20;99.90
25208;DHT22;13153;52.316;21.166;2022-09-09T08:04:17;13.20;99.90
25208;DHT22;13153;52.316;21.166;2022-09-09T08:06:50;13.20;99.90
25208;DHT22;13153;52.316;21.166;2022-09-09T08:09:18;13.30;99.90
25208;DHT22;13153;52.316;21.166;2022-09-09T08:11:45;13.40;99.90
25208;DHT22;13153;52.316;21.166;2022-09-09T08:14:12;13.40;99.90
25208;DHT22;13153;52.316;21.166;2022-09-09T08:16:41;13.40;99.90
25208;DHT22;13153;52.316;21.166;2022-09-09T08:19:09;13.40;99.90
25208;DHT22;13153;52.316;21.166;2022-09-09T08:21:37;13.40;99.90
25208;DHT22;13153;52.316;21.166;2022-09-09T08:24:06;13.50;99.90
25208;DHT22;13153;52.316;21.166;2022-09-09T08:26:38;13.50;99.90
25208;DHT22;13153;52.316;21.166;2022-09-09T08:29:08;13.60;99.90
25208;DHT22;13153;52.316;21.166;2022-09-09T08:31:38;13.60;99.90
25208;DHT22;13153;52.316;21.166;2022-09-09T08:34:08;13.60;99.90
25208;DHT22;13153;52.316;21.166;2022-09-09T08:36:37;13.50;99.90
25208;DHT22;13153;52.316;21.166;2022-09-09T08:39:06;13.50;99.90
25208;DHT22;13153;52.316;21.166;2022-09-09T08:53:14;13.50;99.90
25208;DHT22;13153;52.316;21.166;2022-09-09T08:55:51;13.50;99.90
25208;DHT22;13153;52.316;21.166;2022-09-09T08:58:28;13.50;99.90
25208;DHT22;13153;52.316;21.166;2022-09-09T09:04:14;13.50;99.90
25208;DHT22;13153;52.316;21.166;2022-09-09T09:10:17;13.50;99.90
25208;DHT22;13153;52.316;21.166;2022-09-09T09:12:52;13.50;99.90
25208;DHT22;13153;52.316;21.166;2022-09-09T09:15:21;13.60;99.90
25208;DHT22;13153;52.316;21.166;2022-09-09T09:17:47;13.60;99.90
25208;DHT22;13153;52.316;21.166;2022-09-09T09:20:15;13.70;99.90
25208;DHT22;13153;52.316;21.166;2022-09-09T09:22:50;13.70;99.90
25208;DHT22;13153;52.316;21.166;2022-09-09T09:25:23;13.80;99.90
25208;DHT22;13153;52.316;21.166;2022-09-09T09:28:17;13.90;99.90
25208;DHT22;13153;52.316;21.166;2022-09-09T09:31:04;13.90;99.90
25208;DHT22;13153;52.316;21.166;2022-09-09T09:36:07;13.90;99.90
25208;DHT22;13153;52.316;21.166;2022-09-09T09:38:35;13.80;99.90
25208;DHT22;13153;52.316;21.166;2022-09-09T09:41:02;13.90;99.90
25208;DHT22;13153;52.316;21.166;2022-09-09T09:43:36;13.90;99.90
25208;DHT22;13153;52.316;21.166;2022-09-09T09:46:20;13.90;99.90
25208;DHT22;13153;52.316;21.166;2022-09-09T09:49:04;13.90;99.90
25208;DHT22;13153;52.316;21.166;2022-09-09T09:51:34;13.90;99.90
25208;DHT22;13153;52.316;21.166;2022-09-09T09:56:38;13.80;99.90
25208;DHT22;13153;52.316;21.166;2022-09-09T09:59:18;13.80;99.90
25208;DHT22;13153;52.316;21.166;2022-09-09T10:01:46;13.80;99.90
25208;DHT22;13153;52.316;21.166;2022-09-09T10:04:22;13.80;99.90
25208;DHT22;13153;52.316;21.166;2022-09-09T10:06:49;13.90;99.90
25208;DHT22;13153;52.316;21.166;2022-09-09T10:09:28;13.90;99.90
25208;DHT22;13153;52.316;21.166;2022-09-09T10:12:37;13.90;99.90
25208;DHT22;13153;52.316;21.166;2022-09-09T10:28:10;14.00;99.90
25208;DHT22;13153;52.316;21.166;2022-09-09T10:30:53;14.00;99.90
25208;DHT22;13153;52.316;21.166;2022-09-09T10:36:40;14.00;99.90
25208;DHT22;13153;52.316;21.166;2022-09-09T10:39:38;14.00;99.90
25208;DHT22;13153;52.316;21.166;2022-09-09T10:42:14;14.10;99.90
25208;DHT22;13153;52.316;21.166;2022-09-09T10:44:50;14.10;99.90
25208;DHT22;13153;52.316;21.166;2022-09-09T10:50:40;14.10;99.90
25208;DHT22;13153;52.316;21.166;2022-09-09T10:56:23;14.20;99.90
25208;DHT22;13153;52.316;21.166;2022-09-09T10:58:55;14.20;99.90
25208;DHT22;13153;52.316;21.166;2022-09-09T11:01:30;14.20;99.90
25208;DHT22;13153;52.316;21.166;2022-09-09T11:04:11;14.20;99.90
25208;DHT22;13153;52.316;21.166;2022-09-09T11:06:48;14.20;99.90
25208;DHT22;13153;52.316;21.166;2022-09-09T11:09:21;14.10;99.90
25208;DHT22;13153;52.316;21.166;2022-09-09T11:11:53;14.10;99.90
25208;DHT22;13153;52.316;21.166;2022-09-09T11:22:16;14.00;99.90
25208;DHT22;13153;52.316;21.166;2022-09-09T11:24:52;14.00;99.90
25208;DHT22;13153;52.316;21.166;2022-09-09T11:34:31;14.10;99.90
25208;DHT22;13153;52.316;21.166;2022-09-09T11:40:15;14.20;99.90
25208;DHT22;13153;52.316;21.166;2022-09-09T11:42:45;14.10;99.90
25208;DHT22;13153;52.316;21.166;2022-09-09T11:45:24;14.20;99.90
25208;DHT22;13153;52.316;21.166;2022-09-09T11:47:56;14.20;99.90
25208;DHT22;13153;52.316;21.166;2022-09-09T11:52:49;14.30;99.90
25208;DHT22;13153;52.316;21.166;2022-09-09T11:55:32;14.40;99.90
25208;DHT22;13153;52.316;21.166;2022-09-09T11:58:04;14.40;99.90
25208;DHT22;13153;52.316;21.166;2022-09-09T12:00:47;14.40;99.90
25208;DHT22;13153;52.316;21.166;2022-09-09T12:03:44;14.40;99.90
25208;DHT22;13153;52.316;21.166;2022-09-09T12:06:19;14.30;99.90
25208;DHT22;13153;52.316;21.166;2022-09-09T12:08:57;14.30;99.90
25208;DHT22;13153;52.316;21.166;2022-09-09T12:11:31;14.30;99.90
25208;DHT22;13153;52.316;21.166;2022-09-09T12:14:01;14.30;99.90
25208;DHT22;13153;52.316;21.166;2022-09-09T12:19:22;14.20;99.90
25208;DHT22;13153;52.316;21.166;2022-09-09T12:27:31;14.20;99.90
25208;DHT22;13153;52.316;21.166;2022-09-09T12:30:10;14.20;99.90
25208;DHT22;13153;52.316;21.166;2022-09-09T12:32:39;14.20;99.90
25208;DHT22;13153;52.316;21.166;2022-09-09T12:35:21;14.20;99.90
25208;DHT22;13153;52.316;21.166;2022-09-09T12:37:58;14.20;99.90
25208;DHT22;13153;52.316;21.166;2022-09-09T12:40:30;14.10;99.90
25208;DHT22;13153;52.316;21.166;2022-09-09T12:43:22;14.10;99.90
25208;DHT22;13153;52.316;21.166;2022-09-09T12:45:49;14.20;99.90
25208;DHT22;13153;52.316;21.166;2022-09-09T12:48:33;14.20;99.90
25208;DHT22;13153;52.316;21.166;2022-09-09T12:51:02;14.20;99.90
25208;DHT22;13153;52.316;21.166;2022-09-09T12:53:36;14.30;99.90
25208;DHT22;13153;52.316;21.166;2022-09-09T12:56:07;14.20;99.90
25208;DHT22;13153;52.316;21.166;2022-09-09T12:58:46;14.20;99.90
25208;DHT22;13153;52.316;21.166;2022-09-09T13:01:24;14.30;99.90
25208;DHT22;13153;52.316;21.166;2022-09-09T13:03:52;14.40;99.90
25208;DHT22;13153;52.316;21.166;2022-09-09T13:06:26;14.40;99.90
25208;DHT22;13153;52.316;21.166;2022-09-09T13:08:55;14.50;99.90
25208;DHT22;13153;52.316;21.166;2022-09-09T13:11:39;14.50;99.90
25208;DHT22;13153;52.316;21.166;2022-09-09T13:14:19;14.60;99.90
25208;DHT22;13153;52.316;21.166;2022-09-09T13:17:00;14.60;99.90
25208;DHT22;13153;52.316;21.166;2022-09-09T13:19:37;14.60;99.90
25208;DHT22;13153;52.316;21.166;2022-09-09T13:22:40;14.60;99.90
25208;DHT22;13153;52.316;21.166;2022-09-09T13:25:24;14.60;99.90
25208;DHT22;13153;52.316;21.166;2022-09-09T13:28:02;14.60;99.90
25208;DHT22;13153;52.316;21.166;2022-09-09T13:30:32;14.60;99.90
25208;DHT22;13153;52.316;21.166;2022-09-09T13:36:06;14.60;99.90
25208;DHT22;13153;52.316;21.166;2022-09-09T13:38:53;14.60;99.90
25208;DHT22;13153;52.316;21.166;2022-09-09T13:41:42;14.60;99.90
25208;DHT22;13153;52.316;21.166;2022-09-09T13:44:27;14.60;99.90
25208;DHT22;13153;52.316;21.166;2022-09-09T13:47:21;14.60;99.90
25208;DHT22;13153;52.316;21.166;2022-09-09T13:49:48;14.50;99.90
25208;DHT22;13153;52.316;21.166;2022-09-09T13:52:17;14.50;99.90
25208;DHT22;13153;52.316;21.166;2022-09-09T13:54:48;14.40;99.90
25208;DHT22;13153;52.316;21.166;2022-09-09T13:57:20;14.50;99.90
25208;DHT22;13153;52.316;21.166;2022-09-09T13:59:48;14.50;99.90
25208;DHT22;13153;52.316;21.166;2022-09-09T14:02:15;14.50;99.90
25208;DHT22;13153;52.316;21.166;2022-09-09T14:04:42;14.50;99.90
25208;DHT22;13153;52.316;21.166;2022-09-09T14:07:13;14.50;99.90
25208;DHT22;13153;52.316;21.166;2022-09-09T14:09:41;14.50;99.90
25208;DHT22;13153;52.316;21.166;2022-09-09T14:12:13;14.50;99.90
25208;DHT22;13153;52.316;21.166;2022-09-09T14:14:41;14.50;99.90
25208;DHT22;13153;52.316;21.166;2022-09-09T14:17:08;14.50;99.90
25208;DHT22;13153;52.316;21.166;2022-09-09T14:19:34;14.50;99.90
25208;DHT22;13153;52.316;21.166;2022-09-09T14:22:00;14.40;99.90
25208;DHT22;13153;52.316;21.166;2022-09-09T14:24:29;14.40;99.90
25208;DHT22;13153;52.316;21.166;2022-09-09T14:26:55;14.40;99.90
25208;DHT22;13153;52.316;21.166;2022-09-09T14:29:21;14.50;99.90
25208;DHT22;13153;52.316;21.166;2022-09-09T14:31:47;14.50;99.90
25208;DHT22;13153;52.316;21.166;2022-09-09T14:34:13;14.40;99.90
25208;DHT22;13153;52.316;21.166;2022-09-09T14:36:39;14.40;99.90
25208;DHT22;13153;52.316;21.166;2022-09-09T14:39:07;14.30;99.90
25208;DHT22;13153;52.316;21.166;2022-09-09T14:41:33;14.30;99.90
25208;DHT22;13153;52.316;21.166;2022-09-09T14:43:59;14.30;99.90
25208;DHT22;13153;52.316;21.166;2022-09-09T14:46:25;14.30;99.90
25208;DHT22;13153;52.316;21.166;2022-09-09T14:48:52;14.30;99.90
25208;DHT22;13153;52.316;21.166;2022-09-09T14:51:21;14.30;99.90
25208;DHT22;13153;52.316;21.166;2022-09-09T14:53:51;14.30;99.90
25208;DHT22;13153;52.316;21.166;2022-09-09T14:56:23;14.30;99.90
25208;DHT22;13153;52.316;21.166;2022-09-09T14:58:54;14.40;99.90
25208;DHT22;13153;52.316;21.166;2022-09-09T15:01:20;14.40;99.90
25208;DHT22;13153;52.316;21.166;2022-09-09T15:04:00;14.40;99.90
25208;DHT22;13153;52.316;21.166;2022-09-09T15:06:31;14.40;99.90
25208;DHT22;13153;52.316;21.166;2022-09-09T15:09:00;14.40;99.90
25208;DHT22;13153;52.316;21.166;2022-09-09T15:11:27;14.40;99.90
25208;DHT22;13153;52.316;21.166;2022-09-09T15:14:03;14.40;99.90
25208;DHT22;13153;52.316;21.166;2022-09-09T15:16:30;14.40;99.90
25208;DHT22;13153;52.316;21.166;2022-09-09T15:18:58;14.40;99.90
25208;DHT22;13153;52.316;21.166;2022-09-09T15:21:27;14.40;99.90
25208;DHT22;13153;52.316;21.166;2022-09-09T15:23:56;14.40;99.90
25208;DHT22;13153;52.316;21.166;2022-09-09T15:26:22;14.40;99.90
25208;DHT22;13153;52.316;21.166;2022-09-09T15:28:49;14.30;99.90
25208;DHT22;13153;52.316;21.166;2022-09-09T15:31:26;14.30;99.90
25208;DHT22;13153;52.316;21.166;2022-09-09T15:34:02;14.30;99.90
25208;DHT22;13153;52.316;21.166;2022-09-09T15:36:34;14.30;99.90
25208;DHT22;13153;52.316;21.166;2022-09-09T15:39:03;14.30;99.90
25208;DHT22;13153;52.316;21.166;2022-09-09T15:41:31;14.30;99.90
25208;DHT22;13153;52.316;21.166;2022-09-09T15:43:58;14.30;99.90
25208;DHT22;13153;52.316;21.166;2022-09-09T15:46:32;14.30;99.90
25208;DHT22;13153;52.316;21.166;2022-09-09T15:49:06;14.30;99.90
25208;DHT22;13153;52.316;21.166;2022-09-09T15:51:33;14.30;99.90
25208;DHT22;13153;52.316;21.166;2022-09-09T15:53:59;14.30;99.90
25208;DHT22;13153;52.316;21.166;2022-09-09T15:56:26;14.30;99.90
25208;DHT22;13153;52.316;21.166;2022-09-09T15:58:55;14.20;99.90
25208;DHT22;13153;52.316;21.166;2022-09-09T16:01:24;14.20;99.90
25208;DHT22;13153;52.316;21.166;2022-09-09T16:03:51;14.10;99.90
25208;DHT22;13153;52.316;21.166;2022-09-09T16:06:19;14.10;99.90
25208;DHT22;13153;52.316;21.166;2022-09-09T16:08:50;14.10;99.90
25208;DHT22;13153;52.316;21.166;2022-09-09T16:11:20;14.10;99.90
25208;DHT22;13153;52.316;21.166;2022-09-09T16:13:50;14.10;99.90
25208;DHT22;13153;52.316;21.166;2022-09-09T16:16:20;14.10;99.90
25208;DHT22;13153;52.316;21.166;2022-09-09T16:18:49;14.10;99.90
25208;DHT22;13153;52.316;21.166;2022-09-09T16:21:19;14.10;99.90
25208;DHT22;13153;52.316;21.166;2022-09-09T16:23:49;14.10;99.90
25208;DHT22;13153;52.316;21.166;2022-09-09T16:26:17;14.10;99.90
25208;DHT22;13153;52.316;21.166;2022-09-09T16:28:43;14.10;99.90
25208;DHT22;13153;52.316;21.166;2022-09-09T16:31:14;14.10;99.90
25208;DHT22;13153;52.316;21.166;2022-09-09T16:33:44;14.10;99.90
25208;DHT22;13153;52.316;21.166;2022-09-09T16:36:17;14.10;99.90
25208;DHT22;13153;52.316;21.166;2022-09-09T16:38:45;14.10;99.90
25208;DHT22;13153;52.316;21.166;2022-09-09T16:41:12;14.10;99.90
25208;DHT22;13153;52.316;21.166;2022-09-09T16:43:40;14.00;99.90
25208;DHT22;13153;52.316;21.166;2022-09-09T16:46:18;14.00;99.90
25208;DHT22;13153;52.316;21.166;2022-09-09T16:48:46;14.00;99.90
25208;DHT22;13153;52.316;21.166;2022-09-09T16:51:19;14.00;99.90
25208;DHT22;13153;52.316;21.166;2022-09-09T16:53:48;14.00;99.90
25208;DHT22;13153;52.316;21.166;2022-09-09T16:56:16;14.00;99.90
25208;DHT22;13153;52.316;21.166;2022-09-09T16:58:59;14.00;99.90
25208;DHT22;13153;52.316;21.166;2022-09-09T17:01:28;14.00;99.90
25208;DHT22;13153;52.316;21.166;2022-09-09T17:03:58;14.00;99.90
25208;DHT22;13153;52.316;21.166;2022-09-09T17:06:28;14.00;99.90
25208;DHT22;13153;52.316;21.166;2022-09-09T17:08:57;14.00;99.90
25208;DHT22;13153;52.316;21.166;2022-09-09T17:11:24;13.90;99.90
25208;DHT22;13153;52.316;21.166;2022-09-09T17:13:51;14.00;99.90
25208;DHT22;13153;52.316;21.166;2022-09-09T17:16:20;13.90;99.90
25208;DHT22;13153;52.316;21.166;2022-09-09T17:18:47;13.90;99.90
25208;DHT22;13153;52.316;21.166;2022-09-09T17:21:15;13.90;99.90
25208;DHT22;13153;52.316;21.166;2022-09-09T17:23:44;13.80;99.90
25208;DHT22;13153;52.316;21.166;2022-09-09T17:26:13;13.80;99.90
25208;DHT22;13153;52.316;21.166;2022-09-09T17:28:42;13.80;99.90
25208;DHT22;13153;52.316;21.166;2022-09-09T17:31:10;13.80;99.90
25208;DHT22;13153;52.316;21.166;2022-09-09T17:33:39;13.80;99.90
25208;DHT22;13153;52.316;21.166;2022-09-09T17:36:09;13.80;99.90
25208;DHT22;13153;52.316;21.166;2022-09-09T17:38:37;13.70;99.90
25208;DHT22;13153;52.316;21.166;2022-09-09T17:41:21;13.80;99.90
25208;DHT22;13153;52.316;21.166;2022-09-09T17:43:49;13.80;99.90
25208;DHT22;13153;52.316;21.166;2022-09-09T17:46:26;13.80;99.90
25208;DHT22;13153;52.316;21.166;2022-09-09T17:48:59;13.80;99.90
25208;DHT22;13153;52.316;21.166;2022-09-09T17:51:27;13.80;99.90
25208;DHT22;13153;52.316;21.166;2022-09-09T17:53:57;13.80;99.90